sensor_id;sensor_type;location;lat;lon;timestamp;P1;durP1;ratioP1;P2;durP2;ratioP2
7181;SDS011;3632;42.724;23.298;2023-08-31T00:00:10;4.57;;;2.33;;
7181;SDS011;3632;42.724;23.298;2023-08-31T00:02:38;4.73;;;2.60;;
7181;SDS011;3632;42.724;23.298;2023-08-31T00:05:05;4.83;;;2.73;;
7181;SDS011;3632;42.724;23.298;2023-08-31T00:07:33;5.77;;;2.50;;
7181;SDS011;3632;42.724;23.298;2023-08-31T00:09:59;6.93;;;2.60;;
7181;SDS011;3632;42.724;23.298;2023-08-31T00:12:31;4.27;;;2.80;;
7181;SDS011;3632;42.724;23.298;2023-08-31T00:14:58;3.80;;;2.60;;
7181;SDS011;3632;42.724;23.298;2023-08-31T00:17:26;5.27;;;2.47;;
7181;SDS011;3632;42.724;23.298;2023-08-31T00:19:52;4.20;;;2.70;;
7181;SDS011;3632;42.724;23.298;2023-08-31T00:22:19;4.10;;;2.43;;
7181;SDS011;3632;42.724;23.298;2023-08-31T00:24:46;3.53;;;2.40;;
7181;SDS011;3632;42.724;23.298;2023-08-31T00:27:13;8.70;;;2.87;;
7181;SDS011;3632;42.724;23.298;2023-08-31T00:29:40;4.03;;;2.40;;
7181;SDS011;3632;42.724;23.298;2023-08-31T00:32:08;5.07;;;2.87;;
7181;SDS011;3632;42.724;23.298;2023-08-31T00:34:36;7.33;;;2.43;;
7181;SDS011;3632;42.724;23.298;2023-08-31T00:37:03;4.03;;;2.47;;
7181;SDS011;3632;42.724;23.298;2023-08-31T00:39:30;4.03;;;2.53;;
7181;SDS011;3632;42.724;23.298;2023-08-31T00:42:00;4.67;;;2.30;;
7181;SDS011;3632;42.724;23.298;2023-08-31T00:44:29;4.83;;;2.43;;
7181;SDS011;3632;42.724;23.298;2023-08-31T00:46:57;5.93;;;2.43;;
7181;SDS011;3632;42.724;23.298;2023-08-31T00:49:27;5.43;;;2.57;;
7181;SDS011;3632;42.724;23.298;2023-08-31T00:51:55;4.73;;;2.87;;
7181;SDS011;3632;42.724;23.298;2023-08-31T00:54:22;6.73;;;2.63;;
7181;SDS011;3632;42.724;23.298;2023-08-31T00:56:52;4.67;;;2.40;;
7181;SDS011;3632;42.724;23.298;2023-08-31T00:59:20;3.73;;;2.43;;
7181;SDS011;3632;42.724;23.298;2023-08-31T01:01:49;5.60;;;2.70;;
7181;SDS011;3632;42.724;23.298;2023-08-31T01:04:23;5.33;;;3.03;;
7181;SDS011;3632;42.724;23.298;2023-08-31T01:07:01;3.37;;;2.53;;
7181;SDS011;3632;42.724;23.298;2023-08-31T01:09:39;3.37;;;2.80;;
7181;SDS011;3632;42.724;23.298;2023-08-31T01:12:15;4.67;;;2.60;;
7181;SDS011;3632;42.724;23.298;2023-08-31T01:14:48;4.43;;;2.40;;
7181;SDS011;3632;42.724;23.298;2023-08-31T01:17:20;4.50;;;2.90;;
7181;SDS011;3632;42.724;23.298;2023-08-31T01:19:50;8.47;;;2.90;;
7181;SDS011;3632;42.724;23.298;2023-08-31T01:22:24;4.53;;;3.00;;
7181;SDS011;3632;42.724;23.298;2023-08-31T01:24:58;4.80;;;2.80;;
7181;SDS011;3632;42.724;23.298;2023-08-31T01:27:29;6.10;;;2.60;;
7181;SDS011;3632;42.724;23.298;2023-08-31T01:29:57;5.57;;;2.80;;
7181;SDS011;3632;42.724;23.298;2023-08-31T01:32:24;6.23;;;2.73;;
7181;SDS011;3632;42.724;23.298;2023-08-31T01:34:51;4.67;;;2.50;;
7181;SDS011;3632;42.724;23.298;2023-08-31T01:37:20;5.53;;;2.70;;
7181;SDS011;3632;42.724;23.298;2023-08-31T01:40:04;5.37;;;2.43;;
7181;SDS011;3632;42.724;23.298;2023-08-31T01:42:35;3.97;;;2.33;;
7181;SDS011;3632;42.724;23.298;2023-08-31T01:45:04;4.33;;;2.53;;
7181;SDS011;3632;42.724;23.298;2023-08-31T01:47:33;4.63;;;2.37;;
7181;SDS011;3632;42.724;23.298;2023-08-31T01:50:01;6.43;;;2.80;;
7181;SDS011;3632;42.724;23.298;2023-08-31T01:52:28;5.07;;;2.57;;
7181;SDS011;3632;42.724;23.298;2023-08-31T01:54:55;3.33;;;2.53;;
7181;SDS011;3632;42.724;23.298;2023-08-31T01:57:24;5.63;;;2.77;;
7181;SDS011;3632;42.724;23.298;2023-08-31T01:59:51;4.47;;;2.50;;
7181;SDS011;3632;42.724;23.298;2023-08-31T02:02:27;4.93;;;2.70;;
7181;SDS011;3632;42.724;23.298;2023-08-31T02:04:54;4.87;;;2.40;;
7181;SDS011;3632;42.724;23.298;2023-08-31T02:07:21;4.20;;;2.60;;
7181;SDS011;3632;42.724;23.298;2023-08-31T02:09:47;4.40;;;2.60;;
7181;SDS011;3632;42.724;23.298;2023-08-31T02:12:14;6.40;;;3.00;;
7181;SDS011;3632;42.724;23.298;2023-08-31T02:14:43;6.93;;;2.90;;
7181;SDS011;3632;42.724;23.298;2023-08-31T02:17:09;4.30;;;2.40;;
7181;SDS011;3632;42.724;23.298;2023-08-31T02:19:39;7.47;;;2.87;;
7181;SDS011;3632;42.724;23.298;2023-08-31T02:22:05;5.77;;;2.70;;
7181;SDS011;3632;42.724;23.298;2023-08-31T02:24:32;4.40;;;2.70;;
7181;SDS011;3632;42.724;23.298;2023-08-31T02:26:59;6.30;;;2.87;;
7181;SDS011;3632;42.724;23.298;2023-08-31T02:29:25;6.60;;;2.70;;
7181;SDS011;3632;42.724;23.298;2023-08-31T02:31:54;5.27;;;2.60;;
7181;SDS011;3632;42.724;23.298;2023-08-31T02:34:27;4.17;;;2.40;;
7181;SDS011;3632;42.724;23.298;2023-08-31T02:36:53;6.27;;;2.73;;
7181;SDS011;3632;42.724;23.298;2023-08-31T02:39:20;5.30;;;2.50;;
7181;SDS011;3632;42.724;23.298;2023-08-31T02:41:47;5.97;;;2.70;;
7181;SDS011;3632;42.724;23.298;2023-08-31T02:44:14;3.17;;;2.17;;
7181;SDS011;3632;42.724;23.298;2023-08-31T02:46:40;4.37;;;2.37;;
7181;SDS011;3632;42.724;23.298;2023-08-31T02:49:08;4.00;;;2.60;;
7181;SDS011;3632;42.724;23.298;2023-08-31T02:51:35;3.97;;;2.70;;
7181;SDS011;3632;42.724;23.298;2023-08-31T02:54:02;5.83;;;2.50;;
7181;SDS011;3632;42.724;23.298;2023-08-31T02:56:29;5.50;;;2.60;;
7181;SDS011;3632;42.724;23.298;2023-08-31T02:58:56;6.20;;;2.83;;
7181;SDS011;3632;42.724;23.298;2023-08-31T03:01:23;6.73;;;2.97;;
7181;SDS011;3632;42.724;23.298;2023-08-31T03:03:50;6.30;;;2.70;;
7181;SDS011;3632;42.724;23.298;2023-08-31T03:06:20;7.53;;;2.93;;
7181;SDS011;3632;42.724;23.298;2023-08-31T03:08:50;4.23;;;2.97;;
7181;SDS011;3632;42.724;23.298;2023-08-31T03:11:16;3.93;;;2.23;;
7181;SDS011;3632;42.724;23.298;2023-08-31T03:13:43;5.53;;;2.90;;
7181;SDS011;3632;42.724;23.298;2023-08-31T03:16:10;4.30;;;3.00;;
7181;SDS011;3632;42.724;23.298;2023-08-31T03:18:36;3.50;;;2.60;;
7181;SDS011;3632;42.724;23.298;2023-08-31T03:21:08;5.33;;;3.00;;
7181;SDS011;3632;42.724;23.298;2023-08-31T03:23:38;7.03;;;3.00;;
7181;SDS011;3632;42.724;23.298;2023-08-31T03:26:08;4.30;;;3.10;;
7181;SDS011;3632;42.724;23.298;2023-08-31T03:28:35;7.57;;;4.07;;
7181;SDS011;3632;42.724;23.298;2023-08-31T03:31:03;8.57;;;3.60;;
7181;SDS011;3632;42.724;23.298;2023-08-31T03:33:39;6.77;;;3.83;;
7181;SDS011;3632;42.724;23.298;2023-08-31T03:36:05;6.27;;;3.20;;
7181;SDS011;3632;42.724;23.298;2023-08-31T03:38:32;9.23;;;4.50;;
7181;SDS011;3632;42.724;23.298;2023-08-31T03:41:04;8.30;;;4.07;;
7181;SDS011;3632;42.724;23.298;2023-08-31T03:43:31;9.73;;;5.90;;
7181;SDS011;3632;42.724;23.298;2023-08-31T03:46:00;13.27;;;5.87;;
7181;SDS011;3632;42.724;23.298;2023-08-31T03:48:27;7.40;;;4.03;;
7181;SDS011;3632;42.724;23.298;2023-08-31T03:50:54;16.40;;;10.97;;
7181;SDS011;3632;42.724;23.298;2023-08-31T03:53:22;12.67;;;7.17;;
7181;SDS011;3632;42.724;23.298;2023-08-31T03:55:49;11.07;;;5.27;;
7181;SDS011;3632;42.724;23.298;2023-08-31T03:58:17;8.97;;;5.27;;
7181;SDS011;3632;42.724;23.298;2023-08-31T04:00:53;9.97;;;4.67;;
7181;SDS011;3632;42.724;23.298;2023-08-31T04:03:19;9.03;;;4.47;;
7181;SDS011;3632;42.724;23.298;2023-08-31T04:05:47;9.40;;;4.80;;
7181;SDS011;3632;42.724;23.298;2023-08-31T04:08:13;10.13;;;4.57;;
7181;SDS011;3632;42.724;23.298;2023-08-31T04:10:40;10.33;;;5.20;;
7181;SDS011;3632;42.724;23.298;2023-08-31T04:13:07;11.70;;;4.90;;
7181;SDS011;3632;42.724;23.298;2023-08-31T04:15:38;8.50;;;4.57;;
7181;SDS011;3632;42.724;23.298;2023-08-31T04:18:04;12.03;;;5.90;;
7181;SDS011;3632;42.724;23.298;2023-08-31T04:20:32;12.17;;;7.33;;
7181;SDS011;3632;42.724;23.298;2023-08-31T04:23:00;7.77;;;4.20;;
7181;SDS011;3632;42.724;23.298;2023-08-31T04:25:28;8.10;;;3.93;;
7181;SDS011;3632;42.724;23.298;2023-08-31T04:27:56;8.87;;;3.90;;
7181;SDS011;3632;42.724;23.298;2023-08-31T04:30:32;10.53;;;3.90;;
7181;SDS011;3632;42.724;23.298;2023-08-31T04:33:00;8.77;;;4.17;;
7181;SDS011;3632;42.724;23.298;2023-08-31T04:35:29;7.97;;;4.00;;
7181;SDS011;3632;42.724;23.298;2023-08-31T04:37:59;14.17;;;4.13;;
7181;SDS011;3632;42.724;23.298;2023-08-31T04:40:28;10.07;;;4.53;;
7181;SDS011;3632;42.724;23.298;2023-08-31T04:42:58;10.10;;;4.10;;
7181;SDS011;3632;42.724;23.298;2023-08-31T04:45:25;10.60;;;4.10;;
7181;SDS011;3632;42.724;23.298;2023-08-31T04:47:54;8.97;;;4.17;;
7181;SDS011;3632;42.724;23.298;2023-08-31T04:50:22;7.63;;;3.90;;
7181;SDS011;3632;42.724;23.298;2023-08-31T04:52:49;8.90;;;4.17;;
7181;SDS011;3632;42.724;23.298;2023-08-31T04:55:16;12.73;;;4.73;;
7181;SDS011;3632;42.724;23.298;2023-08-31T04:57:42;7.87;;;3.93;;
7181;SDS011;3632;42.724;23.298;2023-08-31T05:00:09;8.80;;;3.87;;
7181;SDS011;3632;42.724;23.298;2023-08-31T05:02:38;8.77;;;3.80;;
7181;SDS011;3632;42.724;23.298;2023-08-31T05:05:05;9.27;;;4.30;;
7181;SDS011;3632;42.724;23.298;2023-08-31T05:07:33;13.10;;;4.83;;
7181;SDS011;3632;42.724;23.298;2023-08-31T05:10:00;11.77;;;5.50;;
7181;SDS011;3632;42.724;23.298;2023-08-31T05:12:28;14.10;;;7.20;;
7181;SDS011;3632;42.724;23.298;2023-08-31T05:15:00;25.60;;;10.03;;
7181;SDS011;3632;42.724;23.298;2023-08-31T05:17:29;19.70;;;8.27;;
7181;SDS011;3632;42.724;23.298;2023-08-31T05:19:56;13.77;;;6.53;;
7181;SDS011;3632;42.724;23.298;2023-08-31T05:22:23;17.10;;;6.23;;
7181;SDS011;3632;42.724;23.298;2023-08-31T05:24:51;13.73;;;6.10;;
7181;SDS011;3632;42.724;23.298;2023-08-31T05:27:18;10.90;;;5.67;;
7181;SDS011;3632;42.724;23.298;2023-08-31T05:29:45;11.57;;;5.87;;
7181;SDS011;3632;42.724;23.298;2023-08-31T05:32:12;10.97;;;5.87;;
7181;SDS011;3632;42.724;23.298;2023-08-31T05:34:39;13.57;;;6.30;;
7181;SDS011;3632;42.724;23.298;2023-08-31T05:37:05;13.83;;;6.37;;
7181;SDS011;3632;42.724;23.298;2023-08-31T05:39:32;12.03;;;6.00;;
7181;SDS011;3632;42.724;23.298;2023-08-31T05:42:00;6.53;;;4.57;;
7181;SDS011;3632;42.724;23.298;2023-08-31T05:44:27;9.63;;;5.17;;
7181;SDS011;3632;42.724;23.298;2023-08-31T05:46:56;8.90;;;4.43;;
7181;SDS011;3632;42.724;23.298;2023-08-31T05:49:23;9.17;;;4.50;;
7181;SDS011;3632;42.724;23.298;2023-08-31T05:51:52;9.63;;;4.30;;
7181;SDS011;3632;42.724;23.298;2023-08-31T05:54:21;8.03;;;4.03;;
7181;SDS011;3632;42.724;23.298;2023-08-31T05:56:53;10.40;;;4.20;;
7181;SDS011;3632;42.724;23.298;2023-08-31T05:59:30;13.70;;;4.53;;
7181;SDS011;3632;42.724;23.298;2023-08-31T06:01:56;13.73;;;4.00;;
7181;SDS011;3632;42.724;23.298;2023-08-31T06:04:23;6.20;;;3.90;;
7181;SDS011;3632;42.724;23.298;2023-08-31T06:06:50;13.53;;;5.50;;
7181;SDS011;3632;42.724;23.298;2023-08-31T06:09:19;8.77;;;3.63;;
7181;SDS011;3632;42.724;23.298;2023-08-31T06:11:46;11.60;;;4.00;;
7181;SDS011;3632;42.724;23.298;2023-08-31T06:14:13;7.10;;;3.20;;
7181;SDS011;3632;42.724;23.298;2023-08-31T06:16:41;10.27;;;3.90;;
7181;SDS011;3632;42.724;23.298;2023-08-31T06:19:09;5.97;;;3.13;;
7181;SDS011;3632;42.724;23.298;2023-08-31T06:21:36;8.87;;;3.10;;
7181;SDS011;3632;42.724;23.298;2023-08-31T06:24:03;7.20;;;3.40;;
7181;SDS011;3632;42.724;23.298;2023-08-31T06:26:31;8.50;;;3.70;;
7181;SDS011;3632;42.724;23.298;2023-08-31T06:28:58;5.53;;;2.50;;
7181;SDS011;3632;42.724;23.298;2023-08-31T06:31:25;6.07;;;2.50;;
7181;SDS011;3632;42.724;23.298;2023-08-31T06:33:53;9.73;;;2.87;;
7181;SDS011;3632;42.724;23.298;2023-08-31T06:36:20;6.53;;;2.37;;
7181;SDS011;3632;42.724;23.298;2023-08-31T06:38:47;6.97;;;2.90;;
7181;SDS011;3632;42.724;23.298;2023-08-31T06:41:13;6.73;;;2.20;;
7181;SDS011;3632;42.724;23.298;2023-08-31T06:43:40;5.97;;;2.80;;
7181;SDS011;3632;42.724;23.298;2023-08-31T06:46:07;4.13;;;2.60;;
7181;SDS011;3632;42.724;23.298;2023-08-31T06:48:34;7.87;;;2.73;;
7181;SDS011;3632;42.724;23.298;2023-08-31T06:51:05;5.70;;;2.50;;
7181;SDS011;3632;42.724;23.298;2023-08-31T06:53:34;6.50;;;2.70;;
7181;SDS011;3632;42.724;23.298;2023-08-31T06:56:01;7.50;;;2.73;;
7181;SDS011;3632;42.724;23.298;2023-08-31T06:58:28;7.47;;;4.10;;
7181;SDS011;3632;42.724;23.298;2023-08-31T07:00:55;6.63;;;2.90;;
7181;SDS011;3632;42.724;23.298;2023-08-31T07:03:22;7.13;;;2.67;;
7181;SDS011;3632;42.724;23.298;2023-08-31T07:05:49;6.40;;;2.90;;
7181;SDS011;3632;42.724;23.298;2023-08-31T07:08:17;6.17;;;3.23;;
7181;SDS011;3632;42.724;23.298;2023-08-31T07:10:45;10.77;;;8.57;;
7181;SDS011;3632;42.724;23.298;2023-08-31T07:13:12;6.93;;;3.83;;
7181;SDS011;3632;42.724;23.298;2023-08-31T07:15:42;11.43;;;4.20;;
7181;SDS011;3632;42.724;23.298;2023-08-31T07:18:08;16.13;;;9.63;;
7181;SDS011;3632;42.724;23.298;2023-08-31T07:20:35;12.80;;;6.40;;
7181;SDS011;3632;42.724;23.298;2023-08-31T07:23:02;13.37;;;4.30;;
7181;SDS011;3632;42.724;23.298;2023-08-31T07:25:31;6.23;;;2.87;;
7181;SDS011;3632;42.724;23.298;2023-08-31T07:27:58;12.13;;;7.83;;
7181;SDS011;3632;42.724;23.298;2023-08-31T07:30:25;14.33;;;9.90;;
7181;SDS011;3632;42.724;23.298;2023-08-31T07:32:51;14.63;;;4.37;;
7181;SDS011;3632;42.724;23.298;2023-08-31T07:35:18;7.30;;;4.50;;
7181;SDS011;3632;42.724;23.298;2023-08-31T07:37:45;7.07;;;3.20;;
7181;SDS011;3632;42.724;23.298;2023-08-31T07:40:11;14.57;;;8.40;;
7181;SDS011;3632;42.724;23.298;2023-08-31T07:42:39;6.80;;;4.60;;
7181;SDS011;3632;42.724;23.298;2023-08-31T07:45:06;5.67;;;3.00;;
7181;SDS011;3632;42.724;23.298;2023-08-31T07:47:36;7.13;;;2.67;;
7181;SDS011;3632;42.724;23.298;2023-08-31T07:50:06;5.40;;;2.50;;
7181;SDS011;3632;42.724;23.298;2023-08-31T07:52:33;5.23;;;2.23;;
7181;SDS011;3632;42.724;23.298;2023-08-31T07:55:02;6.37;;;2.80;;
7181;SDS011;3632;42.724;23.298;2023-08-31T07:57:29;5.07;;;3.00;;
7181;SDS011;3632;42.724;23.298;2023-08-31T07:59:58;8.00;;;2.73;;
7181;SDS011;3632;42.724;23.298;2023-08-31T08:02:24;3.90;;;2.17;;
7181;SDS011;3632;42.724;23.298;2023-08-31T08:04:51;4.60;;;2.43;;
7181;SDS011;3632;42.724;23.298;2023-08-31T08:07:18;4.00;;;2.20;;
7181;SDS011;3632;42.724;23.298;2023-08-31T08:09:45;5.50;;;2.47;;
7181;SDS011;3632;42.724;23.298;2023-08-31T08:12:11;4.00;;;2.60;;
7181;SDS011;3632;42.724;23.298;2023-08-31T08:14:38;4.37;;;2.43;;
7181;SDS011;3632;42.724;23.298;2023-08-31T08:17:07;3.87;;;2.30;;
7181;SDS011;3632;42.724;23.298;2023-08-31T08:19:34;3.83;;;2.60;;
7181;SDS011;3632;42.724;23.298;2023-08-31T08:22:00;5.93;;;2.80;;
7181;SDS011;3632;42.724;23.298;2023-08-31T08:24:28;5.57;;;3.00;;
7181;SDS011;3632;42.724;23.298;2023-08-31T08:26:57;4.00;;;2.87;;
7181;SDS011;3632;42.724;23.298;2023-08-31T08:29:24;4.67;;;2.80;;
7181;SDS011;3632;42.724;23.298;2023-08-31T08:31:56;5.43;;;3.40;;
7181;SDS011;3632;42.724;23.298;2023-08-31T08:34:24;7.60;;;3.70;;
7181;SDS011;3632;42.724;23.298;2023-08-31T08:36:54;4.67;;;3.53;;
7181;SDS011;3632;42.724;23.298;2023-08-31T08:39:20;5.27;;;3.50;;
7181;SDS011;3632;42.724;23.298;2023-08-31T08:41:47;4.00;;;3.60;;
7181;SDS011;3632;42.724;23.298;2023-08-31T08:44:14;4.67;;;3.43;;
7181;SDS011;3632;42.724;23.298;2023-08-31T08:46:44;5.67;;;3.50;;
7181;SDS011;3632;42.724;23.298;2023-08-31T08:49:13;5.33;;;2.83;;
7181;SDS011;3632;42.724;23.298;2023-08-31T08:51:42;6.70;;;3.17;;
7181;SDS011;3632;42.724;23.298;2023-08-31T08:54:09;4.47;;;3.43;;
7181;SDS011;3632;42.724;23.298;2023-08-31T08:56:35;6.60;;;3.33;;
7181;SDS011;3632;42.724;23.298;2023-08-31T08:59:02;6.20;;;3.13;;
7181;SDS011;3632;42.724;23.298;2023-08-31T09:01:29;5.40;;;3.53;;
7181;SDS011;3632;42.724;23.298;2023-08-31T09:03:58;6.37;;;3.90;;
7181;SDS011;3632;42.724;23.298;2023-08-31T09:06:25;7.03;;;3.80;;
7181;SDS011;3632;42.724;23.298;2023-08-31T09:08:55;8.40;;;3.37;;
7181;SDS011;3632;42.724;23.298;2023-08-31T09:11:22;4.90;;;3.77;;
7181;SDS011;3632;42.724;23.298;2023-08-31T09:13:50;4.93;;;4.00;;
7181;SDS011;3632;42.724;23.298;2023-08-31T09:16:26;5.93;;;3.70;;
7181;SDS011;3632;42.724;23.298;2023-08-31T09:18:55;4.17;;;3.40;;
7181;SDS011;3632;42.724;23.298;2023-08-31T09:21:21;5.33;;;3.80;;
7181;SDS011;3632;42.724;23.298;2023-08-31T09:23:56;5.17;;;3.60;;
7181;SDS011;3632;42.724;23.298;2023-08-31T09:26:23;4.77;;;3.70;;
7181;SDS011;3632;42.724;23.298;2023-08-31T09:28:50;4.83;;;3.50;;
7181;SDS011;3632;42.724;23.298;2023-08-31T09:31:18;7.80;;;3.90;;
7181;SDS011;3632;42.724;23.298;2023-08-31T09:33:49;4.83;;;3.97;;
7181;SDS011;3632;42.724;23.298;2023-08-31T09:36:16;4.47;;;3.90;;
7181;SDS011;3632;42.724;23.298;2023-08-31T09:38:44;5.53;;;4.27;;
7181;SDS011;3632;42.724;23.298;2023-08-31T09:41:13;6.47;;;4.50;;
7181;SDS011;3632;42.724;23.298;2023-08-31T09:43:40;6.20;;;3.97;;
7181;SDS011;3632;42.724;23.298;2023-08-31T09:46:07;5.60;;;4.17;;
7181;SDS011;3632;42.724;23.298;2023-08-31T09:48:35;5.43;;;3.83;;
7181;SDS011;3632;42.724;23.298;2023-08-31T09:51:04;6.47;;;4.07;;
7181;SDS011;3632;42.724;23.298;2023-08-31T09:53:31;5.70;;;3.90;;
7181;SDS011;3632;42.724;23.298;2023-08-31T09:56:02;6.43;;;4.40;;
7181;SDS011;3632;42.724;23.298;2023-08-31T09:58:32;4.83;;;3.97;;
7181;SDS011;3632;42.724;23.298;2023-08-31T10:01:00;4.53;;;4.13;;
7181;SDS011;3632;42.724;23.298;2023-08-31T10:03:27;6.47;;;4.67;;
7181;SDS011;3632;42.724;23.298;2023-08-31T10:05:54;5.33;;;4.33;;
7181;SDS011;3632;42.724;23.298;2023-08-31T10:08:22;7.47;;;4.70;;
7181;SDS011;3632;42.724;23.298;2023-08-31T10:10:51;5.30;;;4.23;;
7181;SDS011;3632;42.724;23.298;2023-08-31T10:13:19;4.87;;;4.37;;
7181;SDS011;3632;42.724;23.298;2023-08-31T10:15:49;4.90;;;4.40;;
7181;SDS011;3632;42.724;23.298;2023-08-31T10:18:16;5.67;;;4.47;;
7181;SDS011;3632;42.724;23.298;2023-08-31T10:20:44;4.57;;;3.97;;
7181;SDS011;3632;42.724;23.298;2023-08-31T10:23:11;4.35;;;3.95;;
7181;SDS011;3632;42.724;23.298;2023-08-31T10:28:29;5.00;;;4.30;;
7181;SDS011;3632;42.724;23.298;2023-08-31T10:31:06;4.85;;;4.22;;
7181;SDS011;3632;42.724;23.298;2023-08-31T10:33:34;5.70;;;4.70;;
7181;SDS011;3632;42.724;23.298;2023-08-31T10:36:09;5.60;;;4.37;;
7181;SDS011;3632;42.724;23.298;2023-08-31T10:38:36;5.37;;;4.30;;
7181;SDS011;3632;42.724;23.298;2023-08-31T10:41:17;4.70;;;4.20;;
7181;SDS011;3632;42.724;23.298;2023-08-31T10:43:48;4.90;;;4.07;;
7181;SDS011;3632;42.724;23.298;2023-08-31T10:46:18;6.13;;;4.07;;
7181;SDS011;3632;42.724;23.298;2023-08-31T10:48:55;4.80;;;4.23;;
7181;SDS011;3632;42.724;23.298;2023-08-31T10:51:27;5.33;;;4.07;;
7181;SDS011;3632;42.724;23.298;2023-08-31T10:54:05;4.97;;;4.13;;
7181;SDS011;3632;42.724;23.298;2023-08-31T10:56:32;8.63;;;4.40;;
7181;SDS011;3632;42.724;23.298;2023-08-31T10:58:59;5.77;;;4.27;;
7181;SDS011;3632;42.724;23.298;2023-08-31T11:04:22;4.37;;;3.87;;
7181;SDS011;3632;42.724;23.298;2023-08-31T11:06:50;5.40;;;4.20;;
7181;SDS011;3632;42.724;23.298;2023-08-31T11:09:42;4.60;;;3.67;;
7181;SDS011;3632;42.724;23.298;2023-08-31T11:12:10;4.57;;;3.55;;
7181;SDS011;3632;42.724;23.298;2023-08-31T11:14:37;5.40;;;3.92;;
7181;SDS011;3632;42.724;23.298;2023-08-31T11:17:06;5.60;;;3.83;;
7181;SDS011;3632;42.724;23.298;2023-08-31T11:19:34;4.28;;;3.60;;
7181;SDS011;3632;42.724;23.298;2023-08-31T11:22:02;4.47;;;3.67;;
7181;SDS011;3632;42.724;23.298;2023-08-31T11:24:30;4.35;;;3.85;;
7181;SDS011;3632;42.724;23.298;2023-08-31T11:26:57;4.35;;;3.55;;
7181;SDS011;3632;42.724;23.298;2023-08-31T11:29:24;6.13;;;3.65;;
7181;SDS011;3632;42.724;23.298;2023-08-31T11:31:51;4.22;;;3.55;;
7181;SDS011;3632;42.724;23.298;2023-08-31T11:34:19;5.05;;;3.70;;
7181;SDS011;3632;42.724;23.298;2023-08-31T11:36:46;7.13;;;3.53;;
7181;SDS011;3632;42.724;23.298;2023-08-31T11:39:13;6.97;;;3.63;;
7181;SDS011;3632;42.724;23.298;2023-08-31T11:41:41;7.93;;;3.57;;
7181;SDS011;3632;42.724;23.298;2023-08-31T11:44:11;5.27;;;3.43;;
7181;SDS011;3632;42.724;23.298;2023-08-31T11:46:44;5.80;;;3.63;;
7181;SDS011;3632;42.724;23.298;2023-08-31T11:49:13;4.15;;;3.38;;
7181;SDS011;3632;42.724;23.298;2023-08-31T11:51:42;5.15;;;3.20;;
7181;SDS011;3632;42.724;23.298;2023-08-31T11:54:09;6.30;;;3.10;;
7181;SDS011;3632;42.724;23.298;2023-08-31T11:56:40;6.22;;;3.30;;
7181;SDS011;3632;42.724;23.298;2023-08-31T11:59:14;5.20;;;3.38;;
7181;SDS011;3632;42.724;23.298;2023-08-31T12:01:42;4.90;;;3.42;;
7181;SDS011;3632;42.724;23.298;2023-08-31T12:04:10;5.03;;;3.88;;
7181;SDS011;3632;42.724;23.298;2023-08-31T12:06:37;4.40;;;3.42;;
7181;SDS011;3632;42.724;23.298;2023-08-31T12:09:05;7.82;;;3.70;;
7181;SDS011;3632;42.724;23.298;2023-08-31T12:11:33;4.22;;;3.00;;
7181;SDS011;3632;42.724;23.298;2023-08-31T12:13:59;5.13;;;3.00;;
7181;SDS011;3632;42.724;23.298;2023-08-31T12:16:32;5.32;;;3.38;;
7181;SDS011;3632;42.724;23.298;2023-08-31T12:19:01;5.00;;;3.33;;
7181;SDS011;3632;42.724;23.298;2023-08-31T12:21:29;5.78;;;3.15;;
7181;SDS011;3632;42.724;23.298;2023-08-31T12:23:56;6.38;;;4.50;;
7181;SDS011;3632;42.724;23.298;2023-08-31T12:26:25;6.20;;;4.07;;
7181;SDS011;3632;42.724;23.298;2023-08-31T12:28:52;3.83;;;3.10;;
7181;SDS011;3632;42.724;23.298;2023-08-31T12:31:19;10.30;;;9.30;;
7181;SDS011;3632;42.724;23.298;2023-08-31T12:33:46;6.63;;;5.32;;
7181;SDS011;3632;42.724;23.298;2023-08-31T12:36:15;4.22;;;3.35;;
7181;SDS011;3632;42.724;23.298;2023-08-31T12:38:42;5.45;;;3.80;;
7181;SDS011;3632;42.724;23.298;2023-08-31T12:41:09;5.10;;;3.33;;
7181;SDS011;3632;42.724;23.298;2023-08-31T12:43:38;4.78;;;4.25;;
7181;SDS011;3632;42.724;23.298;2023-08-31T12:46:05;4.82;;;3.65;;
7181;SDS011;3632;42.724;23.298;2023-08-31T12:48:32;4.28;;;3.72;;
7181;SDS011;3632;42.724;23.298;2023-08-31T12:50:59;6.07;;;3.88;;
7181;SDS011;3632;42.724;23.298;2023-08-31T12:53:25;4.50;;;3.22;;
7181;SDS011;3632;42.724;23.298;2023-08-31T12:55:52;4.05;;;3.20;;
7181;SDS011;3632;42.724;23.298;2023-08-31T12:58:19;4.65;;;2.90;;
7181;SDS011;3632;42.724;23.298;2023-08-31T13:00:48;5.43;;;3.60;;
7181;SDS011;3632;42.724;23.298;2023-08-31T13:03:18;6.45;;;3.45;;
7181;SDS011;3632;42.724;23.298;2023-08-31T13:05:45;6.43;;;3.53;;
7181;SDS011;3632;42.724;23.298;2023-08-31T13:08:12;5.15;;;3.42;;
7181;SDS011;3632;42.724;23.298;2023-08-31T13:10:39;4.80;;;3.30;;
7181;SDS011;3632;42.724;23.298;2023-08-31T13:13:05;3.92;;;3.28;;
7181;SDS011;3632;42.724;23.298;2023-08-31T13:15:32;4.72;;;3.60;;
7181;SDS011;3632;42.724;23.298;2023-08-31T13:18:00;4.22;;;3.10;;
7181;SDS011;3632;42.724;23.298;2023-08-31T13:20:27;4.38;;;2.92;;
7181;SDS011;3632;42.724;23.298;2023-08-31T13:22:54;3.45;;;3.10;;
7181;SDS011;3632;42.724;23.298;2023-08-31T13:25:20;5.93;;;3.03;;
7181;SDS011;3632;42.724;23.298;2023-08-31T13:27:47;5.35;;;3.00;;
7181;SDS011;3632;42.724;23.298;2023-08-31T13:30:14;3.83;;;3.42;;
7181;SDS011;3632;42.724;23.298;2023-08-31T13:32:41;4.85;;;2.95;;
7181;SDS011;3632;42.724;23.298;2023-08-31T13:35:10;5.13;;;3.50;;
7181;SDS011;3632;42.724;23.298;2023-08-31T13:37:37;4.43;;;3.38;;
7181;SDS011;3632;42.724;23.298;2023-08-31T13:40:05;7.93;;;5.68;;
7181;SDS011;3632;42.724;23.298;2023-08-31T13:42:33;4.60;;;2.88;;
7181;SDS011;3632;42.724;23.298;2023-08-31T13:45:04;4.47;;;3.00;;
7181;SDS011;3632;42.724;23.298;2023-08-31T13:47:32;5.88;;;3.20;;
7181;SDS011;3632;42.724;23.298;2023-08-31T13:49:59;5.65;;;3.40;;
7181;SDS011;3632;42.724;23.298;2023-08-31T13:52:27;10.30;;;7.75;;
7181;SDS011;3632;42.724;23.298;2023-08-31T13:54:54;4.13;;;3.10;;
7181;SDS011;3632;42.724;23.298;2023-08-31T13:57:21;4.85;;;2.85;;
7181;SDS011;3632;42.724;23.298;2023-08-31T13:59:47;9.45;;;3.67;;
7181;SDS011;3632;42.724;23.298;2023-08-31T14:02:14;5.18;;;3.05;;
7181;SDS011;3632;42.724;23.298;2023-08-31T14:04:41;4.28;;;3.17;;
7181;SDS011;3632;42.724;23.298;2023-08-31T14:07:08;4.45;;;3.00;;
7181;SDS011;3632;42.724;23.298;2023-08-31T14:09:36;4.75;;;3.03;;
7181;SDS011;3632;42.724;23.298;2023-08-31T14:12:02;4.95;;;2.90;;
7181;SDS011;3632;42.724;23.298;2023-08-31T14:14:29;5.68;;;3.28;;
7181;SDS011;3632;42.724;23.298;2023-08-31T14:16:56;5.80;;;3.60;;
7181;SDS011;3632;42.724;23.298;2023-08-31T14:19:23;3.78;;;2.80;;
7181;SDS011;3632;42.724;23.298;2023-08-31T14:21:49;4.45;;;2.92;;
7181;SDS011;3632;42.724;23.298;2023-08-31T14:24:18;5.43;;;3.00;;
7181;SDS011;3632;42.724;23.298;2023-08-31T14:26:46;6.63;;;3.38;;
7181;SDS011;3632;42.724;23.298;2023-08-31T14:29:12;5.05;;;2.90;;
7181;SDS011;3632;42.724;23.298;2023-08-31T14:31:39;5.10;;;3.20;;
7181;SDS011;3632;42.724;23.298;2023-08-31T14:34:10;9.90;;;3.45;;
7181;SDS011;3632;42.724;23.298;2023-08-31T14:36:43;5.77;;;3.30;;
7181;SDS011;3632;42.724;23.298;2023-08-31T14:39:10;8.73;;;3.67;;
7181;SDS011;3632;42.724;23.298;2023-08-31T14:41:36;6.37;;;2.83;;
7181;SDS011;3632;42.724;23.298;2023-08-31T14:44:05;7.60;;;3.30;;
7181;SDS011;3632;42.724;23.298;2023-08-31T14:46:32;4.83;;;3.30;;
7181;SDS011;3632;42.724;23.298;2023-08-31T14:49:01;4.63;;;2.83;;
7181;SDS011;3632;42.724;23.298;2023-08-31T14:51:32;5.60;;;3.30;;
7181;SDS011;3632;42.724;23.298;2023-08-31T14:53:59;5.50;;;3.20;;
7181;SDS011;3632;42.724;23.298;2023-08-31T14:56:28;5.93;;;3.50;;
7181;SDS011;3632;42.724;23.298;2023-08-31T14:58:54;5.23;;;3.13;;
7181;SDS011;3632;42.724;23.298;2023-08-31T15:01:22;6.17;;;3.47;;
7181;SDS011;3632;42.724;23.298;2023-08-31T15:03:50;4.77;;;2.93;;
7181;SDS011;3632;42.724;23.298;2023-08-31T15:06:17;6.83;;;3.27;;
7181;SDS011;3632;42.724;23.298;2023-08-31T15:08:43;4.87;;;3.40;;
7181;SDS011;3632;42.724;23.298;2023-08-31T15:11:10;9.23;;;3.40;;